Time;durP1;ratioP1;P1;durP2;ratioP2;P2;SDS_P1;SDS_P2;PMS_P1;PMS_P2;Temp;Humidity;BMP_temperature;BMP_pressure;BME280_temperature;BME280_humidity;BME280_pressure;Samples;Min_cycle;Max_cycle;Signal;HPM_P1;HPM_P2
2021/12/22 00:01:36;;;;;;;5.03;2.80;;;4.80;45.80;;;;;;5012509;28;20097;-78
2021/12/22 00:04:03;;;;;;;5.13;3.13;;;4.80;45.80;;;;;;5012363;28;20034;-79
2021/12/22 00:06:32;;;;;;;4.38;2.88;;;4.80;45.60;;;;;;4997926;28;20045;-80
2021/12/22 00:08:59;;;;;;;4.97;2.85;;;4.80;45.60;;;;;;5012528;28;20060;-78
2021/12/22 00:11:25;;;;;;;5.05;2.88;;;4.80;45.50;;;;;;4998835;28;20034;-80
2021/12/22 00:13:51;;;;;;;5.95;2.90;;;4.80;45.40;;;;;;5013848;28;20137;-78
2021/12/22 00:16:17;;;;;;;3.97;2.92;;;4.80;45.30;;;;;;5013152;28;20048;-78
2021/12/22 00:18:43;;;;;;;4.70;2.90;;;4.70;45.20;;;;;;5015207;28;20724;-78
2021/12/22 00:21:10;;;;;;;8.88;3.55;;;4.70;45.10;;;;;;5015707;28;20038;-78
2021/12/22 00:23:37;;;;;;;4.97;2.85;;;4.70;45.10;;;;;;5015538;28;20555;-78
2021/12/22 00:26:04;;;;;;;4.97;2.58;;;4.70;45.20;;;;;;5016512;28;20378;-78
2021/12/22 00:28:31;;;;;;;6.68;3.30;;;4.70;45.00;;;;;;5016632;28;20500;-79
2021/12/22 00:30:59;;;;;;;5.75;2.92;;;4.70;45.00;;;;;;5014898;28;20033;-78
2021/12/22 00:33:28;;;;;;;6.00;3.38;;;4.70;45.00;;;;;;5016183;28;20056;-79
2021/12/22 00:35:54;;;;;;;5.35;2.95;;;4.70;44.90;;;;;;5014365;28;20038;-79
2021/12/22 00:38:21;;;;;;;5.50;3.42;;;4.70;45.00;;;;;;5016668;28;20040;-79
2021/12/22 00:40:48;;;;;;;5.32;3.17;;;4.80;44.90;;;;;;5014503;28;20044;-78
2021/12/22 00:43:15;;;;;;;5.53;3.42;;;4.80;44.80;;;;;;5013202;28;20101;-78
2021/12/22 00:45:41;;;;;;;7.05;3.70;;;4.80;44.60;;;;;;5012345;28;20448;-79
2021/12/22 00:48:09;;;;;;;5.32;3.20;;;4.90;44.60;;;;;;5014859;28;20033;-79
2021/12/22 00:50:37;;;;;;;4.20;2.90;;;4.90;44.40;;;;;;5012976;28;20037;-79
2021/12/22 00:53:04;;;;;;;5.70;3.17;;;4.90;44.40;;;;;;5014148;28;20122;-79
2021/12/22 00:55:30;;;;;;;5.25;3.47;;;4.90;44.30;;;;;;5015458;28;20030;-78
2021/12/22 00:57:56;;;;;;;4.05;2.92;;;4.90;44.30;;;;;;4997464;28;20497;-78
2021/12/22 01:00:24;;;;;;;5.30;3.40;;;4.90;44.20;;;;;;5015103;28;20025;-78
2021/12/22 01:02:50;;;;;;;5.28;3.08;;;4.90;44.20;;;;;;5014864;28;20037;-79
2021/12/22 01:05:17;;;;;;;5.80;3.72;;;4.90;44.30;;;;;;5014732;28;20040;-78
2021/12/22 01:07:45;;;;;;;8.48;2.95;;;4.90;44.20;;;;;;5014307;28;20045;-78
2021/12/22 01:10:12;;;;;;;4.43;2.67;;;4.90;44.30;;;;;;5012634;28;20037;-78
2021/12/22 01:20:50;;;;;;;4.18;2.83;;;4.90;44.50;;;;;;5013446;28;20167;-80
2021/12/22 01:23:03;;;;;;;4.43;2.88;;;4.90;44.50;;;;;;5013367;28;20038;-79
2021/12/22 01:25:32;;;;;;;4.22;2.85;;;5.00;44.40;;;;;;5015228;28;20101;-81
2021/12/22 01:27:58;;;;;;;5.78;3.13;;;5.00;44.30;;;;;;5014688;28;20034;-79
2021/12/22 01:30:28;;;;;;;4.68;2.40;;;5.10;44.30;;;;;;5015287;28;20036;-80
2021/12/22 01:32:57;;;;;;;4.97;3.10;;;5.10;44.10;;;;;;4997806;28;20040;-79
2021/12/22 01:35:29;;;;;;;5.38;2.85;;;5.20;44.10;;;;;;4996124;28;20041;-78
2021/12/22 01:37:55;;;;;;;6.60;3.05;;;5.20;44.10;;;;;;5013948;28;20346;-80
2021/12/22 01:40:22;;;;;;;5.03;2.85;;;5.20;44.00;;;;;;5013553;28;20072;-80
2021/12/22 01:42:50;;;;;;;4.22;2.92;;;5.20;43.90;;;;;;5013479;28;20038;-79
2021/12/22 01:50:55;;;;;;;4.53;2.90;;;5.10;43.80;;;;;;5014420;28;20037;-79
2021/12/22 01:53:21;;;;;;;3.53;2.45;;;5.10;43.70;;;;;;5013817;28;20033;-79
2021/12/22 01:56:05;;;;;;;4.10;2.55;;;5.10;43.70;;;;;;5012074;28;20034;-79
2021/12/22 01:58:35;;;;;;;5.00;2.97;;;5.10;43.80;;;;;;4997676;28;20072;-79
2021/12/22 02:01:04;;;;;;;3.92;2.47;;;5.10;43.80;;;;;;4995880;28;20038;-79
2021/12/22 02:03:30;;;;;;;3.80;2.53;;;5.10;44.40;;;;;;5012745;28;20129;-78
2021/12/22 02:05:56;;;;;;;4.68;2.90;;;5.10;43.90;;;;;;5013061;28;20036;-79
2021/12/22 02:08:22;;;;;;;6.07;3.15;;;5.20;43.90;;;;;;5011864;28;20045;-79
2021/12/22 02:10:48;;;;;;;5.88;2.85;;;5.20;43.80;;;;;;5012518;28;20111;-79
2021/12/22 02:13:20;;;;;;;5.35;3.15;;;5.30;43.70;;;;;;5014119;28;20030;-79
2021/12/22 02:15:47;;;;;;;3.60;2.50;;;5.30;43.60;;;;;;5014195;28;20096;-77
2021/12/22 02:18:18;;;;;;;3.53;2.65;;;5.30;43.50;;;;;;4994988;28;20440;-78
2021/12/22 02:20:48;;;;;;;3.70;2.83;;;5.30;43.50;;;;;;5012016;28;20460;-80
2021/12/22 02:23:14;;;;;;;3.58;2.53;;;5.40;43.50;;;;;;5012657;28;20038;-79
2021/12/22 02:25:48;;;;;;;5.38;2.75;;;5.40;43.50;;;;;;5009392;28;20034;-79
2021/12/22 02:28:22;;;;;;;6.70;3.00;;;5.30;43.50;;;;;;5011312;28;20053;-79
2021/12/22 02:30:51;;;;;;;4.72;2.95;;;5.40;43.60;;;;;;5011902;28;20034;-79
2021/12/22 02:33:34;;;;;;;4.50;2.40;;;5.30;43.40;;;;;;5001737;28;20034;-79
2021/12/22 02:38:44;;;;;;;4.93;2.67;;;5.30;43.50;;;;;;5012260;28;20030;-79
2021/12/22 02:41:14;;;;;;;3.60;2.42;;;5.30;43.50;;;;;;5010189;28;20030;-78
2021/12/22 02:52:10;;;;;;;3.90;2.63;;;5.40;43.40;;;;;;5013633;28;20100;-78
2021/12/22 02:54:43;;;;;;;5.10;2.53;;;5.40;43.30;;;;;;5014016;28;20041;-78
2021/12/22 02:57:22;;;;;;;4.63;2.60;;;5.40;43.20;;;;;;5013198;28;20476;-78
2021/12/22 03:00:22;;;;;;;4.93;2.90;;;5.50;43.10;;;;;;5011327;28;20034;-78
2021/12/22 03:02:57;;;;;;;4.68;2.83;;;5.50;43.00;;;;;;4995216;28;20042;-79
2021/12/22 03:05:24;;;;;;;3.40;2.42;;;5.50;42.90;;;;;;4995141;28;20053;-79
2021/12/22 03:07:50;;;;;;;4.05;2.78;;;5.50;42.70;;;;;;5012853;28;20065;-79
2021/12/22 03:10:18;;;;;;;5.00;2.85;;;5.40;42.60;;;;;;5014181;28;20030;-80
2021/12/22 03:12:53;;;;;;;3.90;2.63;;;5.50;42.70;;;;;;4996391;28;20038;-78
2021/12/22 03:15:20;;;;;;;5.72;3.03;;;5.40;42.60;;;;;;4997105;28;20065;-79
2021/12/22 03:17:47;;;;;;;5.32;3.17;;;5.40;42.70;;;;;;5016675;28;20042;-79
2021/12/22 03:20:14;;;;;;;7.50;3.30;;;5.40;42.70;;;;;;5018485;28;20084;-80
2021/12/22 03:22:44;;;;;;;5.38;2.80;;;5.40;42.60;;;;;;5017594;28;20061;-78
2021/12/22 03:25:15;;;;;;;5.63;2.85;;;5.50;42.60;;;;;;5000281;28;20038;-79
2021/12/22 03:27:50;;;;;;;7.15;3.17;;;5.40;42.50;;;;;;5015547;28;20041;-78
2021/12/22 03:30:18;;;;;;;6.43;3.40;;;5.50;42.60;;;;;;5014891;28;20049;-78
2021/12/22 03:32:44;;;;;;;5.50;3.20;;;5.60;42.80;;;;;;5014813;28;20038;-77
2021/12/22 03:35:16;;;;;;;5.88;3.28;;;5.60;43.00;;;;;;5014016;28;20034;-78
2021/12/22 03:37:43;;;;;;;6.10;3.33;;;5.60;43.00;;;;;;5010936;28;20042;-78
2021/12/22 03:40:09;;;;;;;7.88;3.53;;;5.70;43.10;;;;;;5014035;28;20041;-79
2021/12/22 03:42:35;;;;;;;7.32;3.35;;;5.70;43.10;;;;;;5013921;28;20038;-79
2021/12/22 03:45:01;;;;;;;5.32;3.15;;;5.70;43.10;;;;;;4997927;28;20056;-78
2021/12/22 03:47:27;;;;;;;5.93;3.13;;;5.70;43.10;;;;;;5012436;28;20091;-78
2021/12/22 03:49:53;;;;;;;4.95;3.42;;;5.70;43.10;;;;;;5013121;28;20026;-78
2021/12/22 03:52:19;;;;;;;5.38;3.90;;;5.70;43.20;;;;;;5011567;28;20031;-77
2021/12/22 03:54:45;;;;;;;5.82;3.00;;;5.70;43.20;;;;;;5011524;28;20068;-77
2021/12/22 03:57:11;;;;;;;7.22;3.33;;;5.70;43.20;;;;;;5010935;28;20030;-78
2021/12/22 03:59:37;;;;;;;5.70;3.58;;;5.70;43.30;;;;;;5012953;28;20033;-78
2021/12/22 04:02:03;;;;;;;5.28;3.22;;;5.70;43.30;;;;;;5011087;28;20041;-78
2021/12/22 04:04:29;;;;;;;4.90;3.60;;;5.70;43.30;;;;;;5013484;28;20045;-79
2021/12/22 04:06:55;;;;;;;6.25;3.70;;;5.70;43.20;;;;;;5012303;28;20029;-79
2021/12/22 04:09:27;;;;;;;7.00;3.65;;;5.70;43.20;;;;;;5013923;28;20111;-78
2021/12/22 04:11:53;;;;;;;5.55;3.38;;;5.70;43.20;;;;;;5012878;28;20049;-79
2021/12/22 04:14:19;;;;;;;6.35;3.58;;;5.80;43.10;;;;;;5012694;28;20758;-78
2021/12/22 04:16:45;;;;;;;6.50;3.53;;;5.70;43.10;;;;;;5013595;28;20411;-77
2021/12/22 04:19:11;;;;;;;6.45;3.60;;;5.80;43.10;;;;;;5013367;28;20125;-77
2021/12/22 04:21:37;;;;;;;5.47;3.63;;;5.90;43.00;;;;;;5013629;28;20033;-77
2021/12/22 04:24:05;;;;;;;6.75;3.45;;;5.90;42.90;;;;;;5012877;28;20038;-77
2021/12/22 04:26:32;;;;;;;7.63;3.65;;;5.90;42.80;;;;;;5012535;28;20033;-77
2021/12/22 04:28:59;;;;;;;8.02;3.75;;;5.90;42.70;;;;;;5011979;28;20129;-77
2021/12/22 04:31:25;;;;;;;6.43;3.78;;;5.90;42.60;;;;;;5012947;28;20034;-76
2021/12/22 04:33:51;;;;;;;3.80;2.88;;;6.00;42.50;;;;;;4993808;28;20038;-76
2021/12/22 04:36:17;;;;;;;4.75;3.25;;;5.90;42.60;;;;;;5001958;28;20523;-77
2021/12/22 04:38:43;;;;;;;6.05;3.72;;;5.90;42.50;;;;;;4994060;28;20099;-77
2021/12/22 04:41:09;;;;;;;5.50;3.38;;;5.90;42.40;;;;;;5015069;28;20057;-82
2021/12/22 04:43:36;;;;;;;4.72;3.10;;;5.80;42.40;;;;;;5016620;28;20104;-80
2021/12/22 04:46:01;;;;;;;5.25;3.40;;;5.80;42.20;;;;;;5017380;28;20038;-82
2021/12/22 04:48:27;;;;;;;4.88;2.90;;;5.80;42.30;;;;;;5000149;28;20042;-79
2021/12/22 04:50:53;;;;;;;4.57;2.97;;;5.80;42.40;;;;;;5006392;28;20037;-80
2021/12/22 04:53:26;;;;;;;5.38;2.88;;;5.90;42.50;;;;;;5015961;28;20034;-80
2021/12/22 04:55:52;;;;;;;7.18;3.30;;;5.90;42.60;;;;;;5016853;28;20025;-80
2021/12/22 04:58:18;;;;;;;5.13;3.42;;;5.90;42.50;;;;;;5014896;28;20117;-80
2021/12/22 05:00:44;;;;;;;5.53;3.17;;;5.90;42.40;;;;;;5016275;28;20038;-79
2021/12/22 05:03:10;;;;;;;6.07;3.38;;;5.90;42.40;;;;;;4990515;28;20030;-80
2021/12/22 05:05:36;;;;;;;5.70;3.22;;;6.00;42.40;;;;;;5016349;28;20072;-80
2021/12/22 05:08:03;;;;;;;6.22;4.05;;;6.00;42.30;;;;;;5016011;28;20050;-81
2021/12/22 05:10:29;;;;;;;4.95;3.40;;;6.00;42.20;;;;;;5018803;28;20417;-85
2021/12/22 05:12:55;;;;;;;5.97;3.40;;;6.00;41.80;;;;;;5001955;28;20044;-86
2021/12/22 05:15:23;;;;;;;4.53;3.03;;;6.00;41.70;;;;;;5011607;28;20038;-85
2021/12/22 05:20:19;;;;;;;5.53;2.55;;;5.90;43.30;;;;;;5023351;28;20052;-86
2021/12/22 05:22:45;;;;;;;9.85;3.13;;;5.90;44.60;;;;;;5014125;28;20042;-84
2021/12/22 05:25:12;;;;;;;17.38;4.35;;;5.90;45.50;;;;;;5022672;28;20097;-89
2021/12/22 05:27:39;;;;;;;5.88;2.88;;;5.90;46.00;;;;;;5023867;28;20026;-85
2021/12/22 05:30:07;;;;;;;5.70;2.75;;;5.80;46.50;;;;;;5023666;28;20044;-85
2021/12/22 05:32:34;;;;;;;4.18;2.60;;;5.80;46.90;;;;;;5013964;28;20162;-85
2021/12/22 05:35:02;;;;;;;3.92;2.42;;;5.80;47.20;;;;;;5013036;28;20041;-82
2021/12/22 05:37:28;;;;;;;5.22;2.97;;;5.80;47.30;;;;;;5021932;28;20084;-83
2021/12/22 05:39:57;;;;;;;3.97;2.75;;;5.80;47.50;;;;;;5022332;28;20038;-86
2021/12/22 05:42:27;;;;;;;5.68;2.70;;;5.90;47.80;;;;;;5021812;28;20046;-85
2021/12/22 05:44:53;;;;;;;4.20;2.80;;;5.90;47.90;;;;;;5022233;28;20037;-83
2021/12/22 05:47:21;;;;;;;4.60;2.40;;;6.00;48.10;;;;;;5019260;28;20038;-86
2021/12/22 05:49:49;;;;;;;5.88;2.83;;;6.00;48.40;;;;;;5017562;28;20057;-84
2021/12/22 05:52:15;;;;;;;3.67;2.50;;;6.00;48.40;;;;;;5001492;28;20033;-88
2021/12/22 05:54:40;;;;;;;5.28;2.50;;;6.00;48.40;;;;;;5017622;28;20430;-85
2021/12/22 05:57:06;;;;;;;4.30;2.72;;;6.00;48.40;;;;;;5001510;28;20037;-86
2021/12/22 05:59:32;;;;;;;4.88;2.97;;;6.10;48.60;;;;;;5018953;28;20037;-86
2021/12/22 06:01:58;;;;;;;4.05;2.53;;;6.00;48.90;;;;;;5019148;28;20029;-87
2021/12/22 06:04:24;;;;;;;4.78;2.45;;;6.10;49.20;;;;;;5016889;28;20038;-85
2021/12/22 06:06:50;;;;;;;6.18;2.70;;;6.20;48.60;;;;;;5019546;28;20026;-86
2021/12/22 06:09:16;;;;;;;7.60;3.22;;;6.20;48.60;;;;;;5001151;28;20034;-86
2021/12/22 06:11:42;;;;;;;7.78;3.35;;;6.20;48.60;;;;;;5001547;28;20029;-85
2021/12/22 06:14:08;;;;;;;6.32;3.00;;;6.20;48.50;;;;;;5017359;28;20038;-87
2021/12/22 06:16:34;;;;;;;6.05;2.85;;;6.20;48.70;;;;;;5017430;28;20096;-85
2021/12/22 06:19:02;;;;;;;6.30;2.80;;;6.20;48.70;;;;;;5016932;28;20141;-85
2021/12/22 06:21:30;;;;;;;5.55;3.60;;;6.20;48.50;;;;;;5016567;28;20045;-87
2021/12/22 06:23:56;;;;;;;5.25;3.33;;;6.30;48.40;;;;;;5000907;28;20053;-88
2021/12/22 06:26:22;;;;;;;5.15;3.10;;;6.30;48.50;;;;;;5018434;28;20029;-84
2021/12/22 06:28:48;;;;;;;5.43;3.47;;;6.30;48.30;;;;;;5016631;28;20057;-87
2021/12/22 06:31:14;;;;;;;5.75;3.30;;;6.30;48.30;;;;;;5017377;28;20037;-88
2021/12/22 06:33:40;;;;;;;6.28;3.58;;;6.40;48.40;;;;;;5018885;28;20034;-85
2021/12/22 06:36:06;;;;;;;6.75;3.47;;;6.40;48.50;;;;;;5001751;28;20042;-87
2021/12/22 06:38:35;;;;;;;5.47;3.85;;;6.40;48.60;;;;;;5021226;28;20125;-86
2021/12/22 06:41:03;;;;;;;7.80;4.07;;;6.50;48.40;;;;;;5016917;28;20042;-83
2021/12/22 06:43:30;;;;;;;7.13;3.90;;;6.50;48.40;;;;;;5017363;28;20085;-85
2021/12/22 06:45:56;;;;;;;6.45;4.10;;;6.60;48.30;;;;;;5010125;28;20033;-85
2021/12/22 06:48:22;;;;;;;7.45;3.67;;;6.60;48.20;;;;;;5003068;28;20464;-85
2021/12/22 06:50:48;;;;;;;7.20;3.83;;;6.60;48.10;;;;;;5019587;28;20064;-86
2021/12/22 06:53:14;;;;;;;8.85;3.35;;;6.60;48.00;;;;;;5011752;28;20030;-87
2021/12/22 06:55:40;;;;;;;5.65;3.72;;;6.60;48.10;;;;;;5005305;28;20064;-85
2021/12/22 06:58:06;;;;;;;7.30;3.47;;;6.60;47.90;;;;;;5018597;28;20133;-82
2021/12/22 07:00:32;;;;;;;5.65;3.58;;;6.60;48.00;;;;;;5019928;28;20030;-82
2021/12/22 07:02:58;;;;;;;6.82;4.22;;;6.70;48.00;;;;;;5019997;28;20061;-79
2021/12/22 07:05:24;;;;;;;7.35;4.15;;;6.60;48.10;;;;;;5021193;28;20042;-81
2021/12/22 07:07:50;;;;;;;4.78;2.92;;;6.70;48.20;;;;;;5021821;28;20041;-81
2021/12/22 07:10:16;;;;;;;8.52;3.92;;;6.70;48.20;;;;;;5005245;28;20034;-83
2021/12/22 07:12:46;;;;;;;5.68;3.38;;;6.70;48.30;;;;;;5021193;28;20040;-81
2021/12/22 07:15:14;;;;;;;5.22;3.55;;;6.70;48.10;;;;;;5020370;28;20088;-84
2021/12/22 07:17:45;;;;;;;6.05;3.67;;;6.70;48.10;;;;;;5018527;28;20431;-80
2021/12/22 07:20:12;;;;;;;6.45;3.42;;;6.70;48.70;;;;;;5020622;28;20480;-81
2021/12/22 07:22:38;;;;;;;6.72;3.50;;;6.70;48.10;;;;;;5002877;28;20034;-83
2021/12/22 07:25:06;;;;;;;5.97;3.00;;;6.70;48.00;;;;;;5021098;28;20443;-83
2021/12/22 07:27:33;;;;;;;8.68;3.50;;;6.80;48.00;;;;;;5019405;28;20053;-83
2021/12/22 07:29:59;;;;;;;5.75;3.60;;;6.80;48.00;;;;;;5017942;28;20060;-84
2021/12/22 07:32:25;;;;;;;4.78;2.72;;;6.70;48.00;;;;;;5018145;28;20687;-82
2021/12/22 07:35:03;;;;;;;9.10;3.08;;;6.70;49.20;;;;;;5019379;28;20045;-82
2021/12/22 07:37:47;;;;;;;5.57;3.20;;;6.70;50.00;;;;;;5020406;28;20095;-82
2021/12/22 07:40:16;;;;;;;8.70;3.75;;;6.70;50.30;;;;;;5019183;28;20483;-82
2021/12/22 07:42:42;;;;;;;7.20;3.72;;;6.70;50.20;;;;;;5020552;28;20043;-82
2021/12/22 07:45:10;;;;;;;5.30;3.47;;;6.80;50.20;;;;;;5018623;28;20294;-82
2021/12/22 07:47:36;;;;;;;5.93;3.25;;;6.70;50.20;;;;;;5003067;28;20045;-83
2021/12/22 07:50:03;;;;;;;13.63;3.28;;;6.70;50.30;;;;;;5019872;28;20044;-82
2021/12/22 07:52:30;;;;;;;6.75;3.13;;;6.60;50.30;;;;;;5018802;28;20038;-81
2021/12/22 07:54:56;;;;;;;5.05;3.30;;;6.60;50.30;;;;;;5020964;28;20105;-83
2021/12/22 07:57:22;;;;;;;5.57;3.15;;;6.60;50.30;;;;;;5018712;28;20030;-81
2021/12/22 07:59:48;;;;;;;5.38;3.35;;;6.70;50.20;;;;;;5020722;28;20034;-83
2021/12/22 08:02:14;;;;;;;6.18;3.63;;;6.80;50.10;;;;;;5019192;28;20076;-82
2021/12/22 08:04:41;;;;;;;6.78;3.83;;;6.80;49.90;;;;;;5020153;28;20049;-82
2021/12/22 08:07:07;;;;;;;5.47;3.65;;;6.70;50.00;;;;;;5019646;28;20036;-81
2021/12/22 08:09:33;;;;;;;5.97;2.88;;;6.70;50.40;;;;;;5020036;28;20057;-83
2021/12/22 08:12:04;;;;;;;5.45;3.60;;;6.70;50.70;;;;;;5018450;28;20034;-82
2021/12/22 08:14:39;;;;;;;6.85;3.15;;;6.70;50.50;;;;;;5019624;28;20034;-83
2021/12/22 08:17:07;;;;;;;4.63;2.90;;;6.80;50.20;;;;;;4986461;28;20068;-82
2021/12/22 08:19:33;;;;;;;5.60;3.30;;;6.80;50.00;;;;;;5002844;28;20042;-83
2021/12/22 08:22:00;;;;;;;5.97;3.40;;;6.80;49.90;;;;;;5019800;28;20034;-82
2021/12/22 08:24:25;;;;;;;4.20;3.03;;;6.80;49.70;;;;;;5020201;28;20046;-83
2021/12/22 08:26:52;;;;;;;4.90;3.00;;;6.80;49.70;;;;;;5019321;28;20041;-83
2021/12/22 08:29:19;;;;;;;4.03;2.75;;;6.80;49.80;;;;;;5018527;28;20030;-82
2021/12/22 08:31:45;;;;;;;5.25;3.08;;;6.80;49.70;;;;;;5019072;28;20513;-82
2021/12/22 08:34:15;;;;;;;4.50;2.75;;;6.70;49.80;;;;;;5002420;28;20020;-82
2021/12/22 08:39:26;;;;;;;3.83;2.80;;;6.80;49.70;;;;;;5019962;28;20084;-83
2021/12/22 08:41:53;;;;;;;4.15;2.80;;;6.80;49.80;;;;;;5018797;28;20044;-83
2021/12/22 08:44:19;;;;;;;5.03;2.90;;;6.80;49.90;;;;;;5019230;28;20037;-82
2021/12/22 08:46:50;;;;;;;5.13;2.95;;;6.80;49.90;;;;;;5019166;28;20026;-82
2021/12/22 08:49:19;;;;;;;5.25;2.83;;;6.80;49.90;;;;;;5019047;28;20037;-84
2021/12/22 08:51:47;;;;;;;4.30;2.78;;;6.80;49.60;;;;;;5002494;28;20109;-82
2021/12/22 08:54:14;;;;;;;4.53;2.75;;;6.90;49.50;;;;;;5019450;28;20060;-81
2021/12/22 08:56:41;;;;;;;4.95;3.20;;;6.90;49.50;;;;;;5018115;28;20033;-81
2021/12/22 08:59:08;;;;;;;4.93;2.92;;;6.80;49.40;;;;;;5001009;28;20120;-82
2021/12/22 09:01:35;;;;;;;4.30;2.83;;;6.90;49.30;;;;;;5001303;28;20037;-82
2021/12/22 09:04:00;;;;;;;5.85;3.20;;;6.90;49.20;;;;;;5018149;28;20905;-81
2021/12/22 09:06:27;;;;;;;3.63;2.70;;;6.90;49.20;;;;;;5017893;28;20030;-82
2021/12/22 09:08:53;;;;;;;4.60;2.80;;;6.90;49.20;;;;;;5001712;28;20054;-82
2021/12/22 09:11:20;;;;;;;3.83;2.78;;;6.80;49.20;;;;;;5002113;28;20044;-82
2021/12/22 09:13:47;;;;;;;6.07;3.20;;;6.80;49.20;;;;;;5019314;28;20036;-83
2021/12/22 09:16:13;;;;;;;4.78;3.00;;;6.70;49.30;;;;;;5002346;28;20038;-83
2021/12/22 09:18:39;;;;;;;5.57;2.85;;;6.70;49.40;;;;;;5017576;28;20125;-82
2021/12/22 09:21:07;;;;;;;4.18;2.97;;;6.70;49.40;;;;;;5016264;28;20042;-82
2021/12/22 09:23:34;;;;;;;6.05;3.35;;;6.60;49.40;;;;;;5019199;28;20038;-83
2021/12/22 09:26:00;;;;;;;6.85;3.33;;;6.60;49.60;;;;;;5016342;28;20057;-83
2021/12/22 09:28:26;;;;;;;5.78;3.47;;;6.50;49.50;;;;;;5000346;28;20117;-82
2021/12/22 09:30:52;;;;;;;5.63;3.08;;;6.50;49.60;;;;;;5017873;28;20054;-85
2021/12/22 09:33:19;;;;;;;5.00;2.78;;;6.70;49.60;;;;;;5018462;28;20014;-82
2021/12/22 09:35:48;;;;;;;5.78;3.13;;;6.60;49.50;;;;;;5018682;28;20064;-83
2021/12/22 09:38:14;;;;;;;4.50;3.17;;;6.70;49.20;;;;;;5017320;28;20079;-82
2021/12/22 09:40:40;;;;;;;8.15;3.20;;;6.70;49.10;;;;;;5018129;28;20125;-83
2021/12/22 09:43:07;;;;;;;6.53;2.92;;;6.70;49.20;;;;;;5017248;28;20042;-82
2021/12/22 09:45:37;;;;;;;6.15;3.33;;;6.70;49.20;;;;;;5000222;28;20050;-83
2021/12/22 09:53:10;;;;;;;5.13;3.30;;;6.70;49.20;;;;;;5019049;28;20034;-81
2021/12/22 09:55:36;;;;;;;6.88;3.50;;;6.70;49.40;;;;;;5018186;28;20120;-83
2021/12/22 09:58:05;;;;;;;5.35;3.58;;;6.70;49.80;;;;;;5017887;28;20061;-82
2021/12/22 10:00:34;;;;;;;7.07;3.88;;;6.70;49.50;;;;;;5017373;28;20032;-83
2021/12/22 10:03:01;;;;;;;7.03;3.35;;;6.70;49.40;;;;;;5001125;28;20967;-81
2021/12/22 10:05:27;;;;;;;5.40;3.72;;;6.70;49.20;;;;;;5017574;28;20048;-83
2021/12/22 10:08:27;;;;;;;5.90;3.40;;;6.70;49.40;;;;;;5019501;28;20053;-82
2021/12/22 10:11:11;;;;;;;6.82;3.38;;;6.70;49.30;;;;;;4938800;29;20086;-83
2021/12/22 10:13:41;;;;;;;5.68;3.40;;;6.70;49.20;;;;;;4939018;29;20052;-83
2021/12/22 10:16:14;;;;;;;5.38;3.35;;;6.60;49.20;;;;;;4939088;29;20147;-83
2021/12/22 10:18:40;;;;;;;5.38;3.30;;;6.60;49.00;;;;;;4938316;29;20429;-84
2021/12/22 10:21:11;;;;;;;5.55;3.50;;;6.60;49.20;;;;;;4937660;29;20051;-83
2021/12/22 10:23:40;;;;;;;4.97;3.63;;;6.60;49.20;;;;;;4937629;29;20047;-84
2021/12/22 10:26:08;;;;;;;5.00;3.50;;;6.60;49.30;;;;;;4937551;29;20115;-83
2021/12/22 10:28:52;;;;;;;6.35;4.13;;;6.60;49.30;;;;;;4938949;29;20115;-83
2021/12/22 10:31:21;;;;;;;5.80;3.72;;;6.50;49.20;;;;;;4938426;29;20040;-83
2021/12/22 10:33:47;;;;;;;6.70;3.67;;;6.60;48.80;;;;;;4938883;29;20062;-82
2021/12/22 10:36:20;;;;;;;6.32;4.13;;;6.60;48.30;;;;;;4937996;29;20046;-82
2021/12/22 10:38:52;;;;;;;5.75;3.90;;;6.60;47.70;;;;;;4937666;29;20111;-83
2021/12/22 10:41:19;;;;;;;6.38;4.00;;;6.50;47.30;;;;;;4921634;29;20572;-84
2021/12/22 10:43:49;;;;;;;11.25;3.83;;;6.50;47.60;;;;;;4937385;29;20039;-83
2021/12/22 10:46:27;;;;;;;6.25;3.95;;;6.40;47.10;;;;;;4969257;28;20069;-84
2021/12/22 10:49:21;;;;;;;6.82;4.18;;;6.40;46.70;;;;;;5014708;28;20042;-83
2021/12/22 10:51:56;;;;;;;9.15;4.63;;;6.30;46.30;;;;;;5015286;28;20041;-83
2021/12/22 10:54:33;;;;;;;6.68;4.85;;;6.30;46.10;;;;;;4995641;28;20044;-82
2021/12/22 10:57:01;;;;;;;6.75;4.15;;;6.20;45.80;;;;;;5010549;28;20141;-83
2021/12/22 10:59:27;;;;;;;7.43;4.22;;;6.20;45.50;;;;;;4982573;28;20026;-81
2021/12/22 11:01:53;;;;;;;6.75;4.53;;;6.10;45.40;;;;;;5016670;28;20064;-83
2021/12/22 11:04:24;;;;;;;7.03;3.67;;;6.10;45.20;;;;;;5015545;28;20583;-82
2021/12/22 11:06:52;;;;;;;7.40;4.00;;;6.10;45.20;;;;;;5012275;28;20117;-81
2021/12/22 11:09:20;;;;;;;6.55;3.65;;;6.00;45.20;;;;;;5012529;28;20528;-83
2021/12/22 11:11:56;;;;;;;7.45;4.10;;;6.00;45.10;;;;;;5013598;28;20041;-82
2021/12/22 11:14:27;;;;;;;6.32;3.92;;;6.00;45.00;;;;;;5013186;28;20045;-83
2021/12/22 11:17:11;;;;;;;8.82;4.53;;;5.90;45.00;;;;;;5015954;28;20105;-83
2021/12/22 11:20:03;;;;;;;4.82;3.40;;;5.90;44.80;;;;;;5017569;28;20050;-83
2021/12/22 11:22:41;;;;;;;6.70;3.90;;;5.80;44.60;;;;;;4998337;28;20089;-84
2021/12/22 11:25:11;;;;;;;7.03;3.55;;;5.80;44.70;;;;;;5000691;28;20412;-83
2021/12/22 11:27:38;;;;;;;5.95;3.70;;;5.70;44.60;;;;;;4998830;28;20033;-82
2021/12/22 11:30:05;;;;;;;7.68;3.95;;;5.70;44.60;;;;;;5014879;28;20476;-83
2021/12/22 11:32:32;;;;;;;5.97;3.88;;;5.80;44.60;;;;;;5013117;28;20056;-85
2021/12/22 11:35:07;;;;;;;6.35;3.95;;;5.80;44.60;;;;;;5007485;28;20130;-84
2021/12/22 11:37:33;;;;;;;5.88;3.67;;;5.80;44.60;;;;;;5019699;28;20097;-84
2021/12/22 11:40:00;;;;;;;6.82;3.58;;;5.70;44.30;;;;;;5020814;28;20030;-83
2021/12/22 11:42:31;;;;;;;5.32;3.42;;;5.70;44.30;;;;;;4998067;28;20121;-85
2021/12/22 11:45:13;;;;;;;7.28;3.17;;;5.80;44.20;;;;;;5018993;28;20101;-85
2021/12/22 11:47:42;;;;;;;5.85;3.58;;;5.80;44.60;;;;;;5000037;28;20033;-81
2021/12/22 11:50:22;;;;;;;5.38;3.47;;;5.80;48.20;;;;;;5015864;28;20030;-87
2021/12/22 11:53:00;;;;;;;6.85;3.22;;;5.90;47.90;;;;;;5018969;28;20065;-86
2021/12/22 11:55:36;;;;;;;5.57;3.55;;;5.80;46.90;;;;;;5016951;28;20030;-87
2021/12/22 11:58:22;;;;;;;4.88;3.22;;;5.90;48.40;;;;;;5003815;28;20045;-83
2021/12/22 12:00:53;;;;;;;4.43;3.13;;;5.90;50.00;;;;;;5019917;28;20034;-84
2021/12/22 12:03:21;;;;;;;6.25;3.45;;;5.90;49.00;;;;;;5002567;28;20034;-85
2021/12/22 12:06:11;;;;;;;8.32;3.70;;;5.90;48.10;;;;;;5018842;28;20030;-84
2021/12/22 12:08:41;;;;;;;6.90;3.55;;;5.80;47.10;;;;;;5018705;28;20110;-84
2021/12/22 12:11:09;;;;;;;6.75;3.22;;;5.80;46.30;;;;;;5020812;28;20033;-85
2021/12/22 12:13:44;;;;;;;5.30;3.05;;;5.80;45.70;;;;;;5018375;28;20102;-85
2021/12/22 12:22:10;;;;;;;4.47;3.13;;;5.70;44.90;;;;;;5003000;28;20022;-85
2021/12/22 12:24:38;;;;;;;6.25;3.25;;;5.60;44.60;;;;;;5019802;28;20033;-86
2021/12/22 12:27:31;;;;;;;6.32;3.10;;;5.60;44.40;;;;;;5019046;28;20041;-85
2021/12/22 12:30:04;;;;;;;4.30;2.90;;;5.50;44.20;;;;;;5017861;28;20029;-84
2021/12/22 12:32:42;;;;;;;5.30;3.33;;;5.50;43.90;;;;;;5018177;28;20034;-86
2021/12/22 12:35:21;;;;;;;5.55;3.53;;;5.60;43.80;;;;;;5018021;28;20093;-86
2021/12/22 12:37:58;;;;;;;3.85;2.75;;;5.60;43.40;;;;;;5019224;28;20033;-86
2021/12/22 12:41:10;;;;;;;6.10;3.40;;;5.60;43.10;;;;;;5019551;28;20073;-84
2021/12/22 12:48:49;;;;;;;6.57;3.20;;;5.60;42.80;;;;;;5001264;28;20034;-85
2021/12/22 12:51:25;;;;;;;4.97;3.25;;;5.60;42.50;;;;;;5018810;28;20034;-84
2021/12/22 12:53:54;;;;;;;6.53;3.17;;;5.60;42.60;;;;;;5003129;28;20124;-84
2021/12/22 12:56:23;;;;;;;5.13;3.38;;;5.60;42.50;;;;;;5002674;28;20014;-86
2021/12/22 12:58:55;;;;;;;7.53;3.25;;;5.60;42.40;;;;;;5001238;28;20026;-85
2021/12/22 13:01:46;;;;;;;5.60;3.03;;;5.60;42.40;;;;;;5019245;28;20038;-84
2021/12/22 13:04:26;;;;;;;5.68;3.40;;;5.50;42.40;;;;;;5018359;28;20141;-84
2021/12/22 13:07:05;;;;;;;4.07;3.10;;;5.50;42.50;;;;;;5018400;28;20029;-85
2021/12/22 13:09:33;;;;;;;5.40;2.85;;;5.50;42.30;;;;;;5018694;28;20373;-84
2021/12/22 13:12:03;;;;;;;5.95;3.10;;;5.50;42.40;;;;;;5009710;28;20033;-84
2021/12/22 13:17:19;;;;;;;7.90;3.33;;;5.40;42.20;;;;;;5020247;28;20080;-84
2021/12/22 13:19:53;;;;;;;4.70;3.08;;;5.40;42.30;;;;;;5020335;28;20273;-84
2021/12/22 13:22:21;;;;;;;4.20;2.60;;;5.40;42.30;;;;;;5019245;28;20037;-85
2021/12/22 13:24:49;;;;;;;6.15;3.10;;;5.40;42.40;;;;;;5017574;28;20049;-83
2021/12/22 13:27:30;;;;;;;5.05;3.50;;;5.50;42.30;;;;;;5017865;28;20041;-83
2021/12/22 13:30:08;;;;;;;4.53;2.75;;;5.40;42.20;;;;;;5018545;28;20010;-85
2021/12/22 13:32:36;;;;;;;5.75;2.88;;;5.50;42.80;;;;;;5017163;28;20038;-84
2021/12/22 13:35:02;;;;;;;4.95;3.50;;;5.50;42.10;;;;;;5017825;28;20095;-82
2021/12/22 13:37:31;;;;;;;4.90;2.90;;;5.50;42.00;;;;;;5016475;28;20094;-82
2021/12/22 13:39:57;;;;;;;5.57;3.05;;;5.60;42.00;;;;;;5016779;28;20033;-85
2021/12/22 13:42:23;;;;;;;5.35;3.20;;;5.60;42.00;;;;;;5016455;28;20033;-84
2021/12/22 13:44:49;;;;;;;5.43;3.08;;;5.60;41.80;;;;;;5017914;28;20026;-84
2021/12/22 13:47:15;;;;;;;5.70;3.25;;;5.50;41.70;;;;;;5017433;28;20057;-83
2021/12/22 13:49:41;;;;;;;4.90;3.25;;;5.50;41.70;;;;;;5017580;28;20107;-85
2021/12/22 13:52:07;;;;;;;4.38;2.65;;;5.50;41.90;;;;;;5016267;28;20455;-84
2021/12/22 13:54:33;;;;;;;5.05;3.42;;;5.50;41.70;;;;;;5017601;28;20034;-85
2021/12/22 13:57:03;;;;;;;4.28;2.70;;;5.40;41.70;;;;;;5016459;28;20404;-86